Time;durP1;ratioP1;P1;durP2;ratioP2;P2;SDS_P1;SDS_P2;PMS_P1;PMS_P2;Temp;Humidity;BMP_temperature;BMP_pressure;BME280_temperature;BME280_humidity;BME280_pressure;Samples;Min_cycle;Max_cycle;Signal;HPM_P1;HPM_P2
2021/06/06 00:02:21;;;;;;;11.68;5.87;;;;;;;17.65;52.19;99548.30;1800026;76;20859;-51
2021/06/06 00:09:14;;;;;;;15.15;6.58;;;;;;;17.68;53.24;99543.08;1783581;78;22763;-53
2021/06/06 00:11:50;;;;;;;16.37;7.67;;;;;;;17.60;53.02;99543.73;1727970;81;20959;-53
2021/06/06 00:14:30;;;;;;;16.05;7.80;;;;;;;17.57;54.67;99543.96;1733531;80;21131;-53
2021/06/06 00:17:02;;;;;;;15.75;6.75;;;;;;;17.52;55.01;99543.01;1729956;80;20931;-53
2021/06/06 00:19:30;;;;;;;18.00;7.67;;;;;;;17.48;54.96;99546.11;1730870;80;20959;-52
2021/06/06 00:21:57;;;;;;;13.83;6.45;;;;;;;17.45;54.38;99549.08;1730778;80;20990;-52
2021/06/06 00:24:30;;;;;;;15.53;8.98;;;;;;;17.43;53.78;99548.34;1731600;80;20943;-52
2021/06/06 00:26:57;;;;;;;16.48;10.13;;;;;;;17.42;53.80;99543.89;1729216;80;21147;-51
2021/06/06 00:29:25;;;;;;;10.88;7.70;;;;;;;17.38;53.95;99540.53;1731538;80;21588;-52
2021/06/06 00:31:52;;;;;;;13.20;6.58;;;;;;;17.36;53.83;99541.64;1736253;80;20923;-52
2021/06/06 00:34:20;;;;;;;12.55;7.45;;;;;;;17.34;53.52;99540.91;1730864;80;20982;-59
2021/06/06 00:36:48;;;;;;;16.07;6.50;;;;;;;17.32;53.34;99537.45;1729585;80;21446;-59
2021/06/06 00:39:16;;;;;;;13.62;6.60;;;;;;;17.31;53.42;99542.05;1731927;80;21900;-60
2021/06/06 00:41:44;;;;;;;15.48;6.40;;;;;;;17.27;53.59;99535.97;1729947;80;20935;-57
2021/06/06 00:44:12;;;;;;;13.68;6.85;;;;;;;17.26;53.60;99542.41;1721043;81;21510;-60
2021/06/06 00:46:41;;;;;;;16.40;7.35;;;;;;;17.24;53.93;99544.37;1730494;80;21440;-59
2021/06/06 00:49:08;;;;;;;16.77;8.80;;;;;;;17.21;54.65;99540.55;1701280;81;21467;-59
2021/06/06 00:51:44;;;;;;;14.93;8.48;;;;;;;17.19;55.39;99538.42;1729572;80;20922;-51
2021/06/06 00:54:17;;;;;;;12.43;7.28;;;;;;;17.17;55.74;99534.97;1730290;80;21363;-50
2021/06/06 00:56:48;;;;;;;13.03;8.78;;;;;;;17.15;55.11;99536.07;1734106;80;20903;-49
2021/06/06 00:59:19;;;;;;;17.62;9.80;;;;;;;17.13;55.64;99537.56;1731886;81;20939;-50
2021/06/06 01:01:46;;;;;;;18.20;10.65;;;;;;;17.11;57.06;99543.65;1723190;81;20962;-51
2021/06/06 01:04:13;;;;;;;19.25;10.43;;;;;;;17.04;58.11;99542.39;1733545;80;21130;-50
2021/06/06 01:06:45;;;;;;;17.00;11.18;;;;;;;16.97;58.97;99541.16;1730075;80;20927;-50
2021/06/06 01:09:12;;;;;;;;;;;;;;;16.90;59.81;99535.34;1737154;81;20919;-51
2021/06/06 01:12:06;;;;;;;11.70;7.10;;;;;;;16.84;60.89;99533.61;1739391;81;20113;-50
2021/06/06 01:14:52;;;;;;;12.73;8.55;;;;;;;16.76;59.79;99528.25;1724102;81;21353;-56
2021/06/06 01:17:42;;;;;;;14.13;7.03;;;;;;;16.77;59.27;99523.67;1725687;81;21143;-57
2021/06/06 01:20:15;;;;;;;16.60;7.30;;;;;;;16.78;58.28;99517.27;1729992;81;20954;-56
2021/06/06 01:23:27;;;;;;;15.20;7.40;;;;;;;16.80;57.39;99522.58;1698326;81;20883;-56
2021/06/06 01:26:01;;;;;;;11.68;8.23;;;;;;;16.81;57.47;99525.17;1695428;81;21399;-49
2021/06/06 01:28:40;;;;;;;13.88;8.15;;;;;;;16.83;57.59;99522.31;1717195;81;20966;-52
2021/06/06 01:31:07;;;;;;;17.35;9.60;;;;;;;16.84;57.76;99527.66;1726698;81;21432;-51
2021/06/06 01:33:42;;;;;;;15.75;6.92;;;;;;;16.82;58.93;99527.39;1715954;82;20923;-51
2021/06/06 01:36:13;;;;;;;13.30;8.33;;;;;;;16.80;59.08;99525.30;1729833;81;20963;-51
2021/06/06 01:38:51;;;;;;;15.13;8.10;;;;;;;16.75;60.16;99512.91;1725318;81;21459;-50
2021/06/06 01:41:22;;;;;;;12.70;7.83;;;;;;;16.73;60.07;99527.16;1723262;81;20958;-55
2021/06/06 01:43:53;;;;;;;13.00;8.13;;;;;;;16.71;59.93;99525.03;1727922;81;21581;-59
2021/06/06 01:46:25;;;;;;;11.00;7.25;;;;;;;16.68;59.51;99525.25;1727279;81;21448;-58
2021/06/06 01:48:52;;;;;;;16.82;8.68;;;;;;;16.67;59.70;99529.44;1729567;81;20935;-57
2021/06/06 01:51:27;;;;;;;13.08;7.78;;;;;;;16.64;59.88;99525.12;1728405;81;20923;-58
2021/06/06 01:53:54;;;;;;;11.63;6.85;;;;;;;16.62;59.95;99530.30;1719789;81;21023;-56
2021/06/06 01:56:25;;;;;;;12.13;7.15;;;;;;;16.63;59.59;99529.33;1694493;82;21724;-57
2021/06/06 01:59:00;;;;;;;14.23;8.10;;;;;;;16.63;59.95;99530.20;1725761;81;20982;-56
2021/06/06 02:01:29;;;;;;;14.13;8.20;;;;;;;16.60;60.66;99524.98;1726082;81;20959;-56
2021/06/06 02:03:58;;;;;;;16.87;8.88;;;;;;;16.57;61.11;99530.69;1698113;82;21126;-59
2021/06/06 02:06:48;;;;;;;16.82;8.85;;;;;;;16.54;61.70;99533.63;1729133;81;21520;-56
2021/06/06 02:09:22;;;;;;;15.75;7.95;;;;;;;16.51;61.98;99533.86;1683340;82;22000;-56
2021/06/06 02:11:54;;;;;;;15.65;8.35;;;;;;;16.47;61.74;99540.55;1692855;82;20982;-56
2021/06/06 02:14:32;;;;;;;15.53;8.40;;;;;;;16.44;62.06;99538.92;1694842;82;21010;-56
2021/06/06 02:17:02;;;;;;;18.02;8.95;;;;;;;16.41;62.31;99549.20;1694428;82;21461;-56
2021/06/06 02:19:37;;;;;;;16.48;7.85;;;;;;;16.35;62.82;99549.19;1692883;82;21011;-56
2021/06/06 02:22:10;;;;;;;9.68;6.05;;;;;;;16.30;62.74;99548.67;1693289;82;21792;-56
2021/06/06 02:24:39;;;;;;;12.98;6.42;;;;;;;16.30;61.10;99543.69;1695308;82;22021;-56
2021/06/06 02:27:24;;;;;;;8.68;5.17;;;;;;;16.29;60.98;99544.69;1691659;82;21552;-56
2021/06/06 02:29:58;;;;;;;11.22;4.70;;;;;;;16.28;59.74;99537.52;1684090;83;21026;-57
2021/06/06 02:32:32;;;;;;;9.10;4.55;;;;;;;16.29;58.38;99536.52;1695525;82;21007;-56
2021/06/06 02:35:28;;;;;;;9.88;4.58;;;;;;;16.29;58.29;99540.11;1694694;82;22285;-49
2021/06/06 02:38:06;;;;;;;10.08;4.97;;;;;;;16.29;58.72;99544.69;1696022;82;21019;-49
2021/06/06 02:40:44;;;;;;;10.35;4.35;;;;;;;16.20;59.15;99541.70;1672451;83;20935;-48
2021/06/06 02:43:18;;;;;;;7.28;2.33;;;;;;;16.16;59.01;99542.92;1686874;82;20985;-45
2021/06/06 02:45:46;;;;;;;4.25;2.10;;;;;;;16.20;56.35;99527.23;1661812;83;20935;-46
2021/06/06 02:48:29;;;;;;;8.30;3.00;;;;;;;16.30;56.29;99531.45;1686039;82;21213;-47
2021/06/06 02:51:03;;;;;;;6.15;3.10;;;;;;;16.36;56.41;99533.72;1695736;82;21557;-49
2021/06/06 02:53:41;;;;;;;6.85;3.62;;;;;;;16.39;56.80;99545.71;1693073;82;20943;-50
2021/06/06 02:56:16;;;;;;;9.38;3.83;;;;;;;16.38;57.45;99552.14;1695268;82;21472;-49
2021/06/06 02:58:51;;;;;;;10.63;5.40;;;;;;;16.34;59.21;99547.92;1695977;82;20967;-46
2021/06/06 03:01:30;;;;;;;14.20;5.22;;;;;;;16.30;60.58;99542.33;1685826;82;21081;-46
2021/06/06 03:03:55;;;;;;;8.35;5.30;;;;;;;16.23;61.12;99536.01;1687596;82;20935;-56
2021/06/06 03:06:37;;;;;;;7.72;5.30;;;;;;;16.22;61.96;99541.08;1697130;82;20943;-48
2021/06/06 03:09:08;;;;;;;8.25;5.25;;;;;;;16.17;63.26;99540.56;1707752;82;20884;-49
2021/06/06 03:11:37;;;;;;;5.45;4.60;;;;;;;16.10;63.18;99536.59;1720836;81;20959;-49
2021/06/06 03:14:08;;;;;;;6.97;4.40;;;;;;;16.01;63.54;99533.20;1717242;82;21432;-46
2021/06/06 03:16:38;;;;;;;6.83;4.75;;;;;;;15.92;63.23;99536.61;1719407;81;20924;-45
2021/06/06 03:19:07;;;;;;;9.50;4.75;;;;;;;15.88;63.09;99537.86;1714895;82;20940;-48
2021/06/06 03:21:38;;;;;;;8.53;5.15;;;;;;;15.85;63.46;99546.23;1716814;81;20971;-51
2021/06/06 03:24:14;;;;;;;8.73;5.20;;;;;;;15.82;64.08;99558.22;1716392;81;21497;-51
2021/06/06 03:26:42;;;;;;;9.75;5.55;;;;;;;15.79;65.02;99560.30;1716455;81;21535;-51
2021/06/06 03:29:11;;;;;;;8.10;4.58;;;;;;;15.77;65.16;99551.39;1716446;82;21468;-51
2021/06/06 03:31:45;;;;;;;7.42;4.40;;;;;;;15.78;64.87;99546.33;1717538;82;20933;-51
2021/06/06 03:34:13;;;;;;;7.50;4.58;;;;;;;15.78;65.10;99547.69;1720203;81;21029;-52
2021/06/06 03:36:44;;;;;;;7.92;4.30;;;;;;;15.77;65.08;99537.80;1718777;81;21610;-50
2021/06/06 03:39:22;;;;;;;9.85;5.28;;;;;;;15.77;64.72;99541.88;1715569;81;20939;-53
2021/06/06 03:41:49;;;;;;;8.30;4.60;;;;;;;15.78;65.07;99536.81;1716306;82;20892;-52
2021/06/06 03:44:18;;;;;;;7.12;4.30;;;;;;;15.78;65.09;99536.81;1722296;81;21476;-52
2021/06/06 03:46:46;;;;;;;8.60;4.83;;;;;;;15.78;65.64;99550.41;1719031;81;21032;-50
2021/06/06 03:49:13;;;;;;;9.15;5.35;;;;;;;15.78;65.45;99528.66;1715666;81;20939;-49
2021/06/06 03:51:42;;;;;;;14.87;5.15;;;;;;;15.80;65.61;99545.70;1719148;81;21180;-50
2021/06/06 03:54:11;;;;;;;8.05;5.28;;;;;;;15.82;66.64;99541.01;1721527;81;21647;-49
2021/06/06 03:56:41;;;;;;;11.18;5.90;;;;;;;15.83;68.54;99538.20;1715303;81;20994;-49
2021/06/06 03:59:08;;;;;;;9.58;5.45;;;;;;;15.85;70.03;99538.08;1693707;82;20980;-50
2021/06/06 04:01:36;;;;;;;9.98;5.45;;;;;;;15.84;70.37;99540.42;1702151;82;21010;-50
2021/06/06 04:04:03;;;;;;;8.85;5.85;;;;;;;15.85;71.01;99539.43;1716636;81;21682;-49
2021/06/06 04:06:30;;;;;;;11.33;6.00;;;;;;;15.88;71.13;99541.94;1719377;81;21029;-57
2021/06/06 04:08:58;;;;;;;9.63;5.60;;;;;;;15.94;71.40;99543.69;1719758;81;20860;-56
2021/06/06 04:11:25;;;;;;;8.43;5.75;;;;;;;16.02;71.53;99542.23;1737283;80;20939;-56
2021/06/06 04:14:01;;;;;;;11.22;6.58;;;;;;;16.08;71.52;99539.90;1724835;81;20963;-57
2021/06/06 04:16:29;;;;;;;9.43;6.72;;;;;;;16.13;71.31;99551.30;1728333;81;21126;-59
2021/06/06 04:18:57;;;;;;;12.60;7.08;;;;;;;16.18;71.45;99551.82;1722987;82;21609;-57
2021/06/06 04:21:28;;;;;;;13.32;7.33;;;;;;;16.24;71.45;99544.57;1725986;80;20938;-56
2021/06/06 04:23:56;;;;;;;16.23;7.70;;;;;;;16.31;71.36;99540.02;1723637;81;21506;-62
2021/06/06 04:26:23;;;;;;;12.93;7.45;;;;;;;16.35;71.42;99536.94;1724665;81;21464;-55
2021/06/06 04:28:52;;;;;;;13.20;7.03;;;;;;;16.39;71.56;99536.19;1726157;81;21424;-54
2021/06/06 04:31:20;;;;;;;12.85;7.78;;;;;;;16.44;71.70;99543.50;1726406;81;21891;-55
2021/06/06 04:33:48;;;;;;;10.63;7.72;;;;;;;16.47;71.79;99540.55;1727565;81;21006;-57
2021/06/06 04:36:14;;;;;;;15.38;8.00;;;;;;;16.49;71.73;99549.45;1732236;81;20941;-57
2021/06/06 04:38:42;;;;;;;16.05;6.85;;;;;;;16.52;71.46;99545.15;1722615;82;20939;-57
2021/06/06 04:41:13;;;;;;;13.98;6.97;;;;;;;16.56;71.20;99547.98;1725330;81;21154;-57
2021/06/06 04:43:40;;;;;;;10.05;6.22;;;;;;;16.60;71.42;99549.48;1727448;81;20931;-56
2021/06/06 04:46:07;;;;;;;10.45;6.47;;;;;;;16.63;71.67;99546.53;1698457;82;20974;-55
2021/06/06 04:48:39;;;;;;;10.88;6.00;;;;;;;16.65;71.50;99547.27;1700403;82;20986;-49
2021/06/06 04:52:43;;;;;;;12.23;5.90;;;;;;;16.76;71.23;99551.41;1768846;79;22042;-50
2021/06/06 04:55:17;;;;;;;12.00;6.33;;;;;;;16.70;70.57;99553.22;1768004;80;21471;-51
2021/06/06 04:57:44;;;;;;;13.85;6.28;;;;;;;16.73;71.51;99553.02;1721599;81;21802;-49
2021/06/06 05:00:17;;;;;;;14.40;6.62;;;;;;;16.72;71.77;99555.38;1751548;81;21954;-49
2021/06/06 05:02:48;;;;;;;13.78;6.95;;;;;;;16.74;72.67;99550.67;1725280;81;21034;-50
2021/06/06 05:05:16;;;;;;;10.88;6.10;;;;;;;16.79;73.65;99553.53;1753579;80;20923;-50
2021/06/06 05:07:55;;;;;;;10.68;6.00;;;;;;;16.83;73.13;99549.55;1725963;83;21473;-49
2021/06/06 05:10:22;;;;;;;10.55;6.10;;;;;;;16.85;72.58;99548.45;1717343;83;21130;-50
2021/06/06 05:12:50;;;;;;;8.93;6.30;;;;;;;16.90;72.21;99549.45;1726341;83;20940;-51
2021/06/06 05:15:18;;;;;;;15.63;6.83;;;;;;;16.94;72.85;99553.68;1751267;81;21431;-51
2021/06/06 05:17:45;;;;;;;10.13;6.15;;;;;;;17.00;72.85;99557.27;1726104;83;20974;-51
2021/06/06 05:20:14;;;;;;;15.32;6.15;;;;;;;17.07;73.42;99553.05;1753903;81;21566;-50
2021/06/06 05:22:40;;;;;;;11.08;5.60;;;;;;;17.12;72.73;99556.27;1729666;81;21411;-51
2021/06/06 05:25:12;;;;;;;8.50;5.45;;;;;;;17.18;72.02;99555.78;1725872;81;21380;-51
2021/06/06 05:27:39;;;;;;;10.70;5.85;;;;;;;17.24;72.15;99555.27;1733691;82;20907;-54
2021/06/06 05:30:08;;;;;;;9.63;5.08;;;;;;;17.31;71.70;99554.77;1734079;81;20915;-51
2021/06/06 05:32:35;;;;;;;9.65;5.08;;;;;;;17.34;71.49;99555.41;1732595;81;21623;-51
2021/06/06 05:35:02;;;;;;;11.97;5.50;;;;;;;17.39;71.00;99548.22;1734314;82;21138;-52
2021/06/06 05:37:29;;;;;;;10.65;4.97;;;;;;;17.46;71.05;99557.62;1754127;81;20994;-53
2021/06/06 05:39:55;;;;;;;6.60;4.85;;;;;;;17.49;70.81;99557.38;1753502;80;20958;-52
2021/06/06 05:42:24;;;;;;;15.60;5.67;;;;;;;17.51;71.41;99554.02;1751283;81;20895;-52
2021/06/06 05:44:51;;;;;;;6.80;5.62;;;;;;;17.52;71.68;99548.46;1702463;81;20943;-51
2021/06/06 05:47:18;;;;;;;9.85;5.33;;;;;;;17.54;72.03;99542.88;1724262;82;21298;-52
2021/06/06 05:52:36;;;;;;;9.18;6.08;;;;;;;17.72;73.52;99546.82;1769430;79;23459;-52
2021/06/06 05:55:04;;;;;;;11.68;5.65;;;;;;;17.74;73.57;99555.77;1748867;81;21027;-52
2021/06/06 05:57:32;;;;;;;8.88;5.95;;;;;;;17.80;72.92;99555.25;1743021;81;21977;-53
2021/06/06 05:59:58;;;;;;;8.35;5.65;;;;;;;17.85;72.63;99550.78;1741764;82;20986;-52
2021/06/06 06:02:25;;;;;;;8.18;5.35;;;;;;;17.91;71.80;99545.30;1743543;81;20935;-52
2021/06/06 06:04:52;;;;;;;6.80;5.10;;;;;;;17.98;70.49;99546.52;1741846;82;21082;-53
2021/06/06 06:07:19;;;;;;;9.73;4.60;;;;;;;18.03;69.26;99546.98;1740412;81;20959;-52
2021/06/06 06:09:48;;;;;;;7.40;4.75;;;;;;;18.08;67.91;99558.39;1740059;82;20928;-52
2021/06/06 06:12:14;;;;;;;6.10;4.42;;;;;;;18.17;67.77;99553.52;1740957;81;21598;-52
2021/06/06 06:14:41;;;;;;;12.35;4.47;;;;;;;18.26;67.58;99554.58;1742831;81;20971;-52
2021/06/06 06:17:10;;;;;;;11.78;5.17;;;;;;;18.33;67.10;99558.04;1743243;81;20979;-53
2021/06/06 06:19:37;;;;;;;10.55;4.87;;;;;;;18.40;66.52;99561.61;1742423;82;21598;-53
2021/06/06 06:22:04;;;;;;;7.75;4.92;;;;;;;18.41;66.37;99553.77;1744151;81;21777;-52
2021/06/06 06:24:35;;;;;;;9.60;5.03;;;;;;;18.42;66.82;99553.63;1743992;82;21003;-51
2021/06/06 06:27:03;;;;;;;11.20;5.62;;;;;;;18.43;67.12;99555.39;1743502;80;20955;-52
2021/06/06 06:29:32;;;;;;;8.75;5.42;;;;;;;18.43;67.41;99552.66;1736623;82;20931;-52
2021/06/06 06:32:09;;;;;;;5.87;3.35;;;;;;;18.45;66.65;99555.25;1739673;81;20959;-52
2021/06/06 06:34:38;;;;;;;6.03;3.08;;;;;;;18.43;62.78;99549.03;1743556;82;21114;-52
2021/06/06 06:37:06;;;;;;;5.35;3.02;;;;;;;18.43;61.95;99547.20;1741460;82;20951;-52
2021/06/06 06:39:35;;;;;;;6.47;2.95;;;;;;;18.47;61.77;99550.52;1745747;81;21019;-55
2021/06/06 06:42:03;;;;;;;7.67;3.02;;;;;;;18.51;61.39;99551.98;1743564;82;21072;-52
2021/06/06 06:44:30;;;;;;;6.53;3.22;;;;;;;18.55;61.04;99546.64;1745314;81;21702;-52
2021/06/06 06:46:58;;;;;;;6.50;3.40;;;;;;;18.53;60.71;99541.78;1742232;80;21775;-54
2021/06/06 06:49:25;;;;;;;8.48;3.90;;;;;;;18.51;61.25;99546.53;1746118;81;21542;-53
2021/06/06 06:51:53;;;;;;;4.65;2.83;;;;;;;18.50;61.99;99544.80;1733808;80;20988;-53
2021/06/06 06:54:20;;;;;;;4.67;3.47;;;;;;;18.47;60.20;99547.78;1730700;81;21025;-49
2021/06/06 06:56:47;;;;;;;4.45;3.20;;;;;;;18.45;59.12;99542.96;1730589;82;20936;-53
2021/06/06 06:59:14;;;;;;;5.60;2.47;;;;;;;18.46;58.92;99551.52;1730948;81;21139;-55
2021/06/06 07:01:40;;;;;;;4.55;2.60;;;;;;;18.47;59.03;99547.78;1727637;82;20880;-55
2021/06/06 07:04:07;;;;;;;7.45;2.55;;;;;;;18.50;58.32;99551.63;1730561;82;21453;-55
2021/06/06 07:06:36;;;;;;;5.40;3.30;;;;;;;18.48;58.79;99549.50;1729072;82;21066;-54
2021/06/06 07:09:04;;;;;;;7.60;3.67;;;;;;;18.46;60.87;99549.65;1729203;82;20996;-57
2021/06/06 07:11:32;;;;;;;7.75;3.95;;;;;;;18.42;63.58;99544.58;1725292;82;20963;-53
2021/06/06 07:13:59;;;;;;;5.12;3.50;;;;;;;18.37;65.26;99549.56;1727456;82;20968;-54
2021/06/06 07:16:26;;;;;;;5.28;2.62;;;;;;;18.23;65.49;99550.27;1728122;82;21524;-56
2021/06/06 07:18:55;;;;;;;7.03;3.45;;;;;;;18.11;65.25;99547.22;1730348;82;20980;-53
2021/06/06 07:21:24;;;;;;;6.85;2.83;;;;;;;17.94;65.83;99547.76;1729495;82;20861;-51
2021/06/06 07:23:51;;;;;;;8.25;3.00;;;;;;;17.78;65.76;99551.77;1731672;81;21592;-52
2021/06/06 07:26:29;;;;;;;7.10;3.12;;;;;;;17.65;66.85;99557.84;1728904;82;21492;-52
2021/06/06 07:28:58;;;;;;;5.60;3.08;;;;;;;17.51;66.88;99548.56;1730323;82;20913;-51
2021/06/06 07:31:25;;;;;;;5.20;2.90;;;;;;;17.46;67.70;99546.21;1730646;82;20972;-52
2021/06/06 07:33:52;;;;;;;4.70;2.95;;;;;;;17.39;68.75;99547.72;1730181;82;20921;-51
2021/06/06 07:36:19;;;;;;;10.00;4.15;;;;;;;17.31;69.69;99546.59;1730636;82;21096;-51
2021/06/06 07:38:49;;;;;;;12.55;3.45;;;;;;;17.26;71.31;99553.31;1730716;82;20951;-51
2021/06/06 07:41:17;;;;;;;5.05;3.12;;;;;;;17.23;71.46;99550.83;1730559;82;21108;-51
2021/06/06 07:43:45;;;;;;;9.53;5.50;;;;;;;17.24;71.91;99552.55;1731707;81;20872;-53
2021/06/06 07:46:13;;;;;;;7.92;4.42;;;;;;;17.26;72.74;99552.45;1731194;82;21537;-52
2021/06/06 07:48:43;;;;;;;5.30;4.12;;;;;;;17.26;73.30;99547.00;1730674;82;20948;-54
2021/06/06 07:51:10;;;;;;;8.90;5.40;;;;;;;17.24;73.31;99551.69;1730512;81;21568;-56
2021/06/06 07:53:37;;;;;;;7.83;5.00;;;;;;;17.23;73.36;99545.38;1744396;82;21039;-55
2021/06/06 07:56:04;;;;;;;11.70;4.20;;;;;;;17.25;73.72;99548.83;1743605;82;21449;-56
2021/06/06 07:58:35;;;;;;;9.23;4.55;;;;;;;17.27;74.28;99548.73;1744993;82;21112;-51
2021/06/06 08:01:04;;;;;;;;;;;;;;;17.28;74.92;99556.77;1746842;82;21148;-59
2021/06/06 08:03:31;;;;;;;7.33;3.83;;;;;;;17.27;75.21;99560.49;1744873;82;20146;-56
2021/06/06 08:06:01;;;;;;;6.83;3.42;;;;;;;17.26;74.37;99557.91;1744824;82;21457;-57
2021/06/06 08:08:28;;;;;;;11.97;3.10;;;;;;;17.25;73.67;99561.09;1745386;82;20892;-56
2021/06/06 08:10:59;;;;;;;6.53;2.83;;;;;;;17.28;72.88;99558.63;1742313;82;21410;-51
2021/06/06 08:13:27;;;;;;;6.03;2.55;;;;;;;17.31;72.08;99557.50;1743357;81;21429;-53
2021/06/06 08:15:56;;;;;;;6.78;3.20;;;;;;;17.29;71.38;99561.22;1743088;82;20900;-58
2021/06/06 08:18:29;;;;;;;3.40;2.20;;;;;;;17.31;71.31;99553.41;1744319;82;20971;-59
2021/06/06 08:21:01;;;;;;;16.32;10.35;;;;;;;17.34;71.30;99557.27;1743131;80;20959;-58
2021/06/06 08:23:28;;;;;;;;;;;;;;;17.36;71.47;99555.27;1746837;82;20896;-55
2021/06/06 08:25:57;;;;;;;4.65;3.02;;;;;;;17.39;72.40;99566.80;1743538;82;21908;-54
2021/06/06 08:28:24;;;;;;;4.92;2.40;;;;;;;17.41;73.91;99561.22;1744346;82;20895;-52
2021/06/06 08:30:55;;;;;;;7.80;3.20;;;;;;;17.42;73.90;99563.84;1742351;82;20882;-57
2021/06/06 08:33:26;;;;;;;7.72;2.85;;;;;;;17.45;74.74;99564.06;1744204;82;21026;-55
2021/06/06 08:35:55;;;;;;;6.28;3.25;;;;;;;17.46;74.17;99565.80;1744160;82;21044;-58
2021/06/06 08:38:24;;;;;;;5.10;2.75;;;;;;;17.47;73.96;99566.16;1744432;80;21125;-57
2021/06/06 08:41:09;;;;;;;7.20;2.80;;;;;;;17.46;74.08;99558.98;1742105;82;21591;-57
2021/06/06 08:43:54;;;;;;;8.95;2.83;;;;;;;17.45;75.07;99557.25;1744476;82;20912;-55
2021/06/06 08:46:23;;;;;;;8.10;4.10;;;;;;;17.41;75.41;99558.48;1735243;80;21480;-54
2021/06/06 08:48:50;;;;;;;5.72;4.03;;;;;;;17.38;76.18;99558.76;1745081;82;21544;-54
2021/06/06 08:51:28;;;;;;;8.30;4.05;;;;;;;17.35;76.46;99558.99;1743419;81;21130;-55
2021/06/06 08:54:12;;;;;;;5.87;3.95;;;;;;;17.33;76.91;99563.71;1729874;82;21015;-58
2021/06/06 08:56:39;;;;;;;9.08;4.37;;;;;;;17.32;76.86;99559.27;1729855;82;20948;-55
2021/06/06 08:59:21;;;;;;;8.35;4.53;;;;;;;17.27;77.17;99555.04;1728544;82;21006;-55
2021/06/06 09:01:58;;;;;;;6.50;3.95;;;;;;;17.25;77.93;99553.42;1727164;82;21388;-55
2021/06/06 09:04:31;;;;;;;6.00;4.08;;;;;;;17.18;78.56;99555.78;1728422;82;21136;-56
2021/06/06 09:07:12;;;;;;;8.85;5.00;;;;;;;17.16;79.54;99561.00;1728460;81;21571;-57
2021/06/06 09:18:02;;;;;;;16.67;5.37;;;;;;;17.20;79.89;99557.01;1782317;78;22805;-54
2021/06/06 09:20:40;;;;;;;20.52;5.30;;;;;;;17.15;80.11;99554.69;1766286;80;21034;-55
2021/06/06 09:23:24;;;;;;;15.58;5.58;;;;;;;17.18;80.89;99550.33;1753119;81;21515;-53
2021/06/06 09:26:10;;;;;;;11.80;5.08;;;;;;;17.25;80.83;99547.96;1752913;80;21025;-54
2021/06/06 09:28:40;;;;;;;9.63;5.62;;;;;;;17.31;80.52;99546.59;1754444;80;20967;-53
2021/06/06 09:31:17;;;;;;;12.73;6.65;;;;;;;17.34;80.25;99543.64;1754079;80;20911;-56
2021/06/06 09:33:56;;;;;;;14.18;6.80;;;;;;;17.41;80.45;99550.31;1754384;80;21592;-49
2021/06/06 09:36:38;;;;;;;13.58;6.33;;;;;;;17.46;80.50;99546.21;1752463;80;21951;-49
2021/06/06 09:39:21;;;;;;;11.33;6.25;;;;;;;17.55;81.12;99541.88;1690811;83;21452;-50
2021/06/06 09:41:57;;;;;;;14.68;5.78;;;;;;;17.65;80.73;99544.71;1720454;82;20955;-49
2021/06/06 09:44:29;;;;;;;9.48;5.22;;;;;;;17.75;80.24;99534.81;1690105;83;20964;-49
2021/06/06 09:47:10;;;;;;;14.40;6.28;;;;;;;17.86;79.04;99536.64;1684462;83;20923;-49
2021/06/06 09:49:45;;;;;;;8.18;5.53;;;;;;;17.95;78.05;99533.11;1719589;83;21134;-50
2021/06/06 09:52:23;;;;;;;8.53;5.75;;;;;;;18.04;78.07;99526.89;1689959;84;20943;-50
2021/06/06 09:54:52;;;;;;;11.33;6.22;;;;;;;18.16;78.00;99528.56;1697488;83;20955;-49
2021/06/06 09:57:32;;;;;;;10.20;5.70;;;;;;;18.28;76.82;99533.00;1700723;82;21515;-50
2021/06/06 10:00:22;;;;;;;11.35;5.70;;;;;;;18.44;75.35;99528.95;1700082;83;21088;-51
2021/06/06 10:02:59;;;;;;;10.53;5.62;;;;;;;18.57;74.91;99532.33;1672428;83;21129;-50
2021/06/06 10:05:34;;;;;;;9.65;5.78;;;;;;;18.71;74.53;99532.04;1696908;83;20927;-49
2021/06/06 10:08:09;;;;;;;11.57;6.20;;;;;;;18.84;75.10;99535.41;1701112;83;21042;-52
2021/06/06 10:10:42;;;;;;;12.18;6.05;;;;;;;18.98;74.40;99533.34;1694666;82;21479;-54
2021/06/06 10:13:12;;;;;;;8.75;5.75;;;;;;;19.11;73.30;99529.87;1700255;83;20950;-51
2021/06/06 10:15:51;;;;;;;12.50;6.20;;;;;;;19.17;73.67;99519.75;1701072;83;20970;-49
2021/06/06 10:18:28;;;;;;;10.10;6.78;;;;;;;19.24;72.55;99518.22;1701301;83;20963;-48
2021/06/06 10:21:10;;;;;;;11.30;6.12;;;;;;;19.27;72.36;99517.92;1700278;82;21498;-48
2021/06/06 10:23:51;;;;;;;12.60;5.70;;;;;;;19.34;72.25;99519.12;1702107;83;21515;-49
2021/06/06 10:26:40;;;;;;;9.55;5.25;;;;;;;19.45;69.96;99525.48;1694811;83;21509;-50
2021/06/06 10:29:40;;;;;;;8.63;5.28;;;;;;;19.46;68.31;99514.91;1700393;83;21207;-48
2021/06/06 10:32:18;;;;;;;11.80;5.40;;;;;;;19.49;68.00;99515.97;1699563;83;20895;-49
2021/06/06 10:35:02;;;;;;;8.40;5.17;;;;;;;19.57;67.14;99510.69;1699493;82;20923;-48
2021/06/06 10:37:30;;;;;;;9.20;4.83;;;;;;;19.64;66.63;99502.30;1695574;82;21464;-49
2021/06/06 10:40:00;;;;;;;7.55;4.15;;;;;;;19.71;66.04;99502.12;1699935;83;21010;-51
2021/06/06 10:42:44;;;;;;;9.40;4.67;;;;;;;19.76;64.81;99501.19;1700104;83;21174;-50
2021/06/06 10:45:33;;;;;;;6.03;4.00;;;;;;;19.75;64.21;99498.06;1611541;84;21045;-49
2021/06/06 10:48:22;;;;;;;6.22;4.42;;;;;;;19.71;63.67;99498.02;1699928;83;20967;-49
2021/06/06 10:50:54;;;;;;;13.95;4.03;;;;;;;19.68;63.94;99487.84;1699154;83;20938;-54
2021/06/06 10:53:24;;;;;;;7.40;4.33;;;;;;;19.66;64.13;99487.99;1695947;83;20955;-53
2021/06/06 10:56:14;;;;;;;8.35;5.20;;;;;;;19.70;64.28;99483.08;1700434;83;21110;-54
2021/06/06 10:58:58;;;;;;;7.53;4.67;;;;;;;19.75;64.42;99481.65;1699852;83;20895;-55
2021/06/06 11:01:45;;;;;;;9.08;4.08;;;;;;;19.86;64.18;99479.28;1699779;82;21002;-46
2021/06/06 11:04:27;;;;;;;7.53;4.83;;;;;;;19.95;63.74;99481.67;1700033;83;21006;-46
2021/06/06 11:07:19;;;;;;;15.32;4.67;;;;;;;20.01;64.05;99472.88;1700280;83;20959;-47
2021/06/06 11:10:10;;;;;;;11.45;5.42;;;;;;;20.05;63.78;99468.86;1679450;83;21137;-47
2021/06/06 11:12:38;;;;;;;;;;;;;;;20.07;63.98;99464.95;1702327;83;21424;-47
2021/06/06 11:15:20;;;;;;;16.32;5.28;;;;;;;20.12;63.90;99450.32;1700499;83;20114;-47
2021/06/06 11:17:49;;;;;;;7.62;4.67;;;;;;;20.18;63.88;99450.24;1646527;84;21587;-48
2021/06/06 11:20:31;;;;;;;9.55;4.72;;;;;;;20.23;64.24;99445.19;1655886;85;20977;-48
2021/06/06 11:22:58;;;;;;;11.25;5.62;;;;;;;20.33;64.77;99448.78;1656771;85;21081;-48
2021/06/06 11:25:49;;;;;;;9.98;4.87;;;;;;;20.44;64.14;99442.78;1719666;82;20915;-47
2021/06/06 11:28:36;;;;;;;9.65;5.33;;;;;;;20.56;64.01;99441.62;1720964;82;21488;-47
2021/06/06 11:31:07;;;;;;;9.10;5.58;;;;;;;20.75;63.61;99439.34;1720991;82;20915;-48
2021/06/06 11:33:48;;;;;;;10.32;4.58;;;;;;;20.94;63.30;99433.80;1717075;82;20923;-46
2021/06/06 11:36:15;;;;;;;9.50;4.78;;;;;;;21.12;62.75;99429.73;1692790;82;21123;-47
2021/06/06 11:38:46;;;;;;;10.88;5.15;;;;;;;21.30;62.31;99426.55;1711267;82;20967;-48
2021/06/06 11:41:37;;;;;;;7.12;4.70;;;;;;;21.44;61.72;99430.66;1718439;82;20951;-49
2021/06/06 11:44:27;;;;;;;10.88;5.60;;;;;;;21.54;60.76;99425.97;1719213;82;20975;-49
2021/06/06 11:47:08;;;;;;;11.03;5.65;;;;;;;21.66;60.26;99423.86;1719660;82;21040;-56
2021/06/06 11:49:49;;;;;;;10.75;4.42;;;;;;;21.70;59.47;99419.28;1718164;82;21140;-54
2021/06/06 11:52:28;;;;;;;6.12;4.05;;;;;;;21.73;57.22;99419.45;1720801;82;21067;-55
2021/06/06 11:55:00;;;;;;;12.78;4.08;;;;;;;21.80;56.39;99409.60;1718207;82;21028;-53
2021/06/06 11:57:37;;;;;;;6.62;3.10;;;;;;;21.93;53.30;99405.93;1718974;82;20971;-54
2021/06/06 12:00:39;;;;;;;5.50;2.95;;;;;;;22.05;52.80;99418.04;1718851;82;20895;-53
2021/06/06 12:03:25;;;;;;;6.00;2.20;;;;;;;22.10;50.09;99428.94;1718930;82;21093;-54
2021/06/06 12:06:02;;;;;;;5.00;2.27;;;;;;;21.98;44.04;99425.55;1717659;82;20998;-54
2021/06/06 12:08:37;;;;;;;4.60;2.60;;;;;;;21.90;43.10;99424.11;1719811;82;21005;-55
2021/06/06 12:11:08;;;;;;;5.70;2.45;;;;;;;21.84;43.75;99400.52;1719409;82;20919;-54
2021/06/06 12:13:39;;;;;;;5.90;2.42;;;;;;;21.79;43.14;99411.14;1719756;82;20976;-55